sensor_id;sensor_type;location;lat;lon;timestamp;P1;durP1;ratioP1;P2;durP2;ratioP2
39222;SDS011;24936;46.328;11.026;2023-07-16T00:01:36;9.80;;;3.60;;
39222;SDS011;24936;46.328;11.026;2023-07-16T00:06:27;4.53;;;3.33;;
39222;SDS011;24936;46.328;11.026;2023-07-16T00:11:17;3.58;;;3.28;;
39222;SDS011;24936;46.328;11.026;2023-07-16T00:16:12;4.63;;;3.40;;
39222;SDS011;24936;46.328;11.026;2023-07-16T00:18:38;4.05;;;3.53;;
39222;SDS011;24936;46.328;11.026;2023-07-16T00:23:29;5.63;;;3.75;;
39222;SDS011;24936;46.328;11.026;2023-07-16T00:25:55;5.38;;;3.45;;
39222;SDS011;24936;46.328;11.026;2023-07-16T00:28:21;4.75;;;3.55;;
39222;SDS011;24936;46.328;11.026;2023-07-16T00:33:12;4.80;;;3.58;;
39222;SDS011;24936;46.328;11.026;2023-07-16T00:38:03;6.03;;;3.72;;
39222;SDS011;24936;46.328;11.026;2023-07-16T00:42:53;4.50;;;3.60;;
39222;SDS011;24936;46.328;11.026;2023-07-16T00:45:19;5.70;;;4.32;;
39222;SDS011;24936;46.328;11.026;2023-07-16T00:50:10;5.22;;;4.22;;
39222;SDS011;24936;46.328;11.026;2023-07-16T00:52:36;8.05;;;4.18;;
39222;SDS011;24936;46.328;11.026;2023-07-16T00:57:28;4.85;;;4.00;;
39222;SDS011;24936;46.328;11.026;2023-07-16T00:59:54;6.90;;;4.50;;
39222;SDS011;24936;46.328;11.026;2023-07-16T01:04:45;4.57;;;4.18;;
39222;SDS011;24936;46.328;11.026;2023-07-16T01:09:37;5.82;;;4.40;;
39222;SDS011;24936;46.328;11.026;2023-07-16T01:12:06;5.35;;;4.53;;
39222;SDS011;24936;46.328;11.026;2023-07-16T01:14:32;7.40;;;4.80;;
39222;SDS011;24936;46.328;11.026;2023-07-16T01:17:02;4.63;;;4.15;;
39222;SDS011;24936;46.328;11.026;2023-07-16T01:19:28;5.82;;;3.58;;
39222;SDS011;24936;46.328;11.026;2023-07-16T01:30:14;5.32;;;4.35;;
39222;SDS011;24936;46.328;11.026;2023-07-16T01:32:41;6.85;;;4.38;;
39222;SDS011;24936;46.328;11.026;2023-07-16T01:35:07;6.18;;;4.75;;
39222;SDS011;24936;46.328;11.026;2023-07-16T01:37:34;9.43;;;4.45;;
39222;SDS011;24936;46.328;11.026;2023-07-16T01:42:25;6.00;;;4.82;;
39222;SDS011;24936;46.328;11.026;2023-07-16T01:49:53;5.00;;;3.85;;
39222;SDS011;24936;46.328;11.026;2023-07-16T01:54:45;5.15;;;4.65;;
39222;SDS011;24936;46.328;11.026;2023-07-16T01:59:36;5.43;;;4.50;;
39222;SDS011;24936;46.328;11.026;2023-07-16T02:04:27;7.55;;;4.90;;
39222;SDS011;24936;46.328;11.026;2023-07-16T02:09:17;8.77;;;4.85;;
39222;SDS011;24936;46.328;11.026;2023-07-16T02:14:08;7.65;;;4.53;;
39222;SDS011;24936;46.328;11.026;2023-07-16T02:18:59;5.60;;;4.57;;
39222;SDS011;24936;46.328;11.026;2023-07-16T02:23:50;7.03;;;4.55;;
39222;SDS011;24936;46.328;11.026;2023-07-16T02:28:41;7.50;;;4.80;;
39222;SDS011;24936;46.328;11.026;2023-07-16T02:33:31;5.93;;;4.70;;
39222;SDS011;24936;46.328;11.026;2023-07-16T02:38:22;8.77;;;4.88;;
39222;SDS011;24936;46.328;11.026;2023-07-16T02:40:48;7.10;;;4.60;;
39222;SDS011;24936;46.328;11.026;2023-07-16T02:45:39;10.10;;;5.03;;
39222;SDS011;24936;46.328;11.026;2023-07-16T02:50:36;5.72;;;4.30;;
39222;SDS011;24936;46.328;11.026;2023-07-16T02:53:05;7.22;;;4.75;;
39222;SDS011;24936;46.328;11.026;2023-07-16T02:55:32;6.07;;;4.85;;
39222;SDS011;24936;46.328;11.026;2023-07-16T02:57:59;10.68;;;4.90;;
39222;SDS011;24936;46.328;11.026;2023-07-16T03:00:27;9.57;;;5.28;;
39222;SDS011;24936;46.328;11.026;2023-07-16T03:05:18;6.10;;;4.80;;
39222;SDS011;24936;46.328;11.026;2023-07-16T03:10:09;5.95;;;5.00;;
39222;SDS011;24936;46.328;11.026;2023-07-16T03:15:00;9.40;;;4.88;;
39222;SDS011;24936;46.328;11.026;2023-07-16T03:19:51;6.50;;;5.38;;
39222;SDS011;24936;46.328;11.026;2023-07-16T03:24:42;7.03;;;5.28;;
39222;SDS011;24936;46.328;11.026;2023-07-16T03:27:07;6.15;;;5.47;;
39222;SDS011;24936;46.328;11.026;2023-07-16T03:31:58;5.60;;;5.00;;
39222;SDS011;24936;46.328;11.026;2023-07-16T03:34:24;6.05;;;5.13;;
39222;SDS011;24936;46.328;11.026;2023-07-16T03:36:51;7.43;;;4.95;;
39222;SDS011;24936;46.328;11.026;2023-07-16T03:41:42;7.15;;;5.10;;
39222;SDS011;24936;46.328;11.026;2023-07-16T03:44:07;5.70;;;5.07;;
39222;SDS011;24936;46.328;11.026;2023-07-16T03:48:58;6.35;;;4.88;;
39222;SDS011;24936;46.328;11.026;2023-07-16T03:53:49;6.45;;;5.28;;
39222;SDS011;24936;46.328;11.026;2023-07-16T03:58:40;7.43;;;5.57;;
39222;SDS011;24936;46.328;11.026;2023-07-16T04:03:30;6.55;;;5.13;;
39222;SDS011;24936;46.328;11.026;2023-07-16T04:08:29;6.45;;;5.05;;
39222;SDS011;24936;46.328;11.026;2023-07-16T04:13:20;6.85;;;4.50;;
39222;SDS011;24936;46.328;11.026;2023-07-16T04:18:10;6.57;;;4.90;;
39222;SDS011;24936;46.328;11.026;2023-07-16T04:23:01;7.03;;;4.82;;
39222;SDS011;24936;46.328;11.026;2023-07-16T04:27:52;8.13;;;4.88;;
39222;SDS011;24936;46.328;11.026;2023-07-16T04:32:43;5.30;;;4.80;;
39222;SDS011;24936;46.328;11.026;2023-07-16T04:37:33;7.82;;;4.63;;
39222;SDS011;24936;46.328;11.026;2023-07-16T04:42:24;8.38;;;5.05;;
39222;SDS011;24936;46.328;11.026;2023-07-16T04:47:15;11.60;;;4.75;;
39222;SDS011;24936;46.328;11.026;2023-07-16T04:52:06;9.15;;;5.30;;
39222;SDS011;24936;46.328;11.026;2023-07-16T04:57:03;6.75;;;4.35;;
39222;SDS011;24936;46.328;11.026;2023-07-16T04:59:31;6.85;;;4.53;;
39222;SDS011;24936;46.328;11.026;2023-07-16T05:04:21;6.07;;;4.20;;
39222;SDS011;24936;46.328;11.026;2023-07-16T05:06:47;6.63;;;3.75;;
39222;SDS011;24936;46.328;11.026;2023-07-16T05:11:38;6.45;;;3.92;;
39222;SDS011;24936;46.328;11.026;2023-07-16T05:14:03;5.03;;;4.03;;
39222;SDS011;24936;46.328;11.026;2023-07-16T05:16:29;6.25;;;4.03;;
39222;SDS011;24936;46.328;11.026;2023-07-16T05:18:55;6.10;;;3.53;;
39222;SDS011;24936;46.328;11.026;2023-07-16T05:21:20;5.80;;;4.10;;
39222;SDS011;24936;46.328;11.026;2023-07-16T05:23:46;8.70;;;4.10;;
39222;SDS011;24936;46.328;11.026;2023-07-16T05:26:11;6.10;;;3.40;;
39222;SDS011;24936;46.328;11.026;2023-07-16T05:28:37;4.82;;;3.47;;
39222;SDS011;24936;46.328;11.026;2023-07-16T05:31:02;4.47;;;3.55;;
39222;SDS011;24936;46.328;11.026;2023-07-16T05:33:28;7.05;;;3.70;;
39222;SDS011;24936;46.328;11.026;2023-07-16T05:35:54;4.85;;;3.63;;
39222;SDS011;24936;46.328;11.026;2023-07-16T05:38:20;5.50;;;3.47;;
39222;SDS011;24936;46.328;11.026;2023-07-16T05:40:45;6.88;;;4.00;;
39222;SDS011;24936;46.328;11.026;2023-07-16T05:43:11;5.10;;;3.67;;
39222;SDS011;24936;46.328;11.026;2023-07-16T05:45:37;4.97;;;3.92;;
39222;SDS011;24936;46.328;11.026;2023-07-16T05:48:02;5.13;;;3.47;;
39222;SDS011;24936;46.328;11.026;2023-07-16T05:50:28;5.28;;;3.60;;
39222;SDS011;24936;46.328;11.026;2023-07-16T05:52:54;5.05;;;3.47;;
39222;SDS011;24936;46.328;11.026;2023-07-16T05:55:19;6.18;;;4.07;;
39222;SDS011;24936;46.328;11.026;2023-07-16T05:57:45;4.68;;;3.72;;
39222;SDS011;24936;46.328;11.026;2023-07-16T06:00:11;7.05;;;3.58;;
39222;SDS011;24936;46.328;11.026;2023-07-16T06:02:38;4.78;;;3.60;;
39222;SDS011;24936;46.328;11.026;2023-07-16T06:05:04;5.32;;;3.50;;
39222;SDS011;24936;46.328;11.026;2023-07-16T06:07:30;7.57;;;3.97;;
39222;SDS011;24936;46.328;11.026;2023-07-16T06:09:56;5.88;;;3.80;;
39222;SDS011;24936;46.328;11.026;2023-07-16T06:12:24;6.10;;;3.55;;
39222;SDS011;24936;46.328;11.026;2023-07-16T06:14:49;5.65;;;3.75;;
39222;SDS011;24936;46.328;11.026;2023-07-16T06:17:14;4.18;;;3.47;;
39222;SDS011;24936;46.328;11.026;2023-07-16T06:19:40;7.40;;;3.80;;
39222;SDS011;24936;46.328;11.026;2023-07-16T06:22:06;5.18;;;3.42;;
39222;SDS011;24936;46.328;11.026;2023-07-16T06:24:32;4.80;;;3.70;;
39222;SDS011;24936;46.328;11.026;2023-07-16T06:26:58;7.60;;;4.88;;
39222;SDS011;24936;46.328;11.026;2023-07-16T06:29:24;4.82;;;3.88;;
39222;SDS011;24936;46.328;11.026;2023-07-16T06:31:56;5.28;;;3.60;;
39222;SDS011;24936;46.328;11.026;2023-07-16T06:34:23;7.88;;;3.58;;
39222;SDS011;24936;46.328;11.026;2023-07-16T06:36:50;4.50;;;4.07;;
39222;SDS011;24936;46.328;11.026;2023-07-16T06:39:15;6.70;;;4.88;;
39222;SDS011;24936;46.328;11.026;2023-07-16T06:41:41;4.90;;;4.43;;
39222;SDS011;24936;46.328;11.026;2023-07-16T06:44:06;7.97;;;3.58;;
39222;SDS011;24936;46.328;11.026;2023-07-16T06:46:33;6.93;;;3.08;;
39222;SDS011;24936;46.328;11.026;2023-07-16T06:48:59;5.65;;;3.67;;
39222;SDS011;24936;46.328;11.026;2023-07-16T06:51:25;9.60;;;3.63;;
39222;SDS011;24936;46.328;11.026;2023-07-16T06:53:51;8.23;;;4.03;;
39222;SDS011;24936;46.328;11.026;2023-07-16T06:56:19;7.03;;;3.13;;
39222;SDS011;24936;46.328;11.026;2023-07-16T06:58:45;9.52;;;3.58;;
39222;SDS011;24936;46.328;11.026;2023-07-16T07:01:10;5.97;;;2.95;;
39222;SDS011;24936;46.328;11.026;2023-07-16T07:03:36;5.70;;;3.72;;
39222;SDS011;24936;46.328;11.026;2023-07-16T07:06:02;4.78;;;3.85;;
39222;SDS011;24936;46.328;11.026;2023-07-16T07:08:29;4.68;;;3.50;;
39222;SDS011;24936;46.328;11.026;2023-07-16T07:10:54;6.85;;;3.55;;
39222;SDS011;24936;46.328;11.026;2023-07-16T07:13:20;6.43;;;3.67;;
39222;SDS011;24936;46.328;11.026;2023-07-16T07:15:46;4.40;;;2.47;;
39222;SDS011;24936;46.328;11.026;2023-07-16T07:18:12;8.60;;;3.17;;
39222;SDS011;24936;46.328;11.026;2023-07-16T07:20:39;5.90;;;3.38;;
39222;SDS011;24936;46.328;11.026;2023-07-16T07:23:05;4.28;;;3.33;;
39222;SDS011;24936;46.328;11.026;2023-07-16T07:25:30;6.22;;;3.53;;
39222;SDS011;24936;46.328;11.026;2023-07-16T07:27:56;4.10;;;2.58;;
39222;SDS011;24936;46.328;11.026;2023-07-16T07:30:22;3.67;;;3.03;;
39222;SDS011;24936;46.328;11.026;2023-07-16T07:32:47;7.22;;;3.33;;
39222;SDS011;24936;46.328;11.026;2023-07-16T07:35:13;5.57;;;2.85;;
39222;SDS011;24936;46.328;11.026;2023-07-16T07:37:38;5.55;;;3.22;;
39222;SDS011;24936;46.328;11.026;2023-07-16T07:40:04;4.07;;;3.10;;
39222;SDS011;24936;46.328;11.026;2023-07-16T07:42:30;7.97;;;3.08;;
39222;SDS011;24936;46.328;11.026;2023-07-16T07:44:56;5.32;;;3.15;;
39222;SDS011;24936;46.328;11.026;2023-07-16T07:47:22;5.95;;;3.03;;
39222;SDS011;24936;46.328;11.026;2023-07-16T07:49:47;5.05;;;3.17;;
39222;SDS011;24936;46.328;11.026;2023-07-16T07:52:13;5.57;;;2.85;;
39222;SDS011;24936;46.328;11.026;2023-07-16T07:54:38;6.30;;;3.33;;
39222;SDS011;24936;46.328;11.026;2023-07-16T07:57:04;4.68;;;3.38;;
39222;SDS011;24936;46.328;11.026;2023-07-16T07:59:30;4.78;;;3.72;;
39222;SDS011;24936;46.328;11.026;2023-07-16T08:01:57;3.42;;;3.10;;
39222;SDS011;24936;46.328;11.026;2023-07-16T08:04:23;5.15;;;3.30;;
39222;SDS011;24936;46.328;11.026;2023-07-16T08:06:50;3.65;;;3.10;;
39222;SDS011;24936;46.328;11.026;2023-07-16T08:09:16;4.47;;;2.92;;
39222;SDS011;24936;46.328;11.026;2023-07-16T08:11:41;4.28;;;3.28;;
39222;SDS011;24936;46.328;11.026;2023-07-16T08:14:07;6.60;;;3.10;;
39222;SDS011;24936;46.328;11.026;2023-07-16T08:16:32;4.47;;;2.90;;
39222;SDS011;24936;46.328;11.026;2023-07-16T08:18:58;5.13;;;2.97;;
39222;SDS011;24936;46.328;11.026;2023-07-16T08:21:23;6.95;;;3.25;;
39222;SDS011;24936;46.328;11.026;2023-07-16T08:23:49;5.80;;;3.00;;
39222;SDS011;24936;46.328;11.026;2023-07-16T08:26:14;5.78;;;2.58;;
39222;SDS011;24936;46.328;11.026;2023-07-16T08:28:40;3.50;;;2.75;;
39222;SDS011;24936;46.328;11.026;2023-07-16T08:31:06;4.80;;;2.58;;
39222;SDS011;24936;46.328;11.026;2023-07-16T08:33:31;6.43;;;2.88;;
39222;SDS011;24936;46.328;11.026;2023-07-16T08:35:56;4.88;;;2.80;;
39222;SDS011;24936;46.328;11.026;2023-07-16T08:38:22;4.10;;;2.45;;
39222;SDS011;24936;46.328;11.026;2023-07-16T08:40:47;3.78;;;2.75;;
39222;SDS011;24936;46.328;11.026;2023-07-16T08:43:14;5.35;;;2.50;;
39222;SDS011;24936;46.328;11.026;2023-07-16T08:45:41;7.35;;;2.70;;
39222;SDS011;24936;46.328;11.026;2023-07-16T08:48:10;4.47;;;3.05;;
39222;SDS011;24936;46.328;11.026;2023-07-16T08:50:36;2.88;;;2.67;;
39222;SDS011;24936;46.328;11.026;2023-07-16T08:53:05;4.45;;;2.78;;
39222;SDS011;24936;46.328;11.026;2023-07-16T08:55:31;3.83;;;2.17;;
39222;SDS011;24936;46.328;11.026;2023-07-16T08:57:58;4.32;;;2.10;;
39222;SDS011;24936;46.328;11.026;2023-07-16T09:00:27;4.55;;;2.53;;
39222;SDS011;24936;46.328;11.026;2023-07-16T09:02:53;4.78;;;2.67;;
39222;SDS011;24936;46.328;11.026;2023-07-16T09:05:22;3.38;;;2.20;;
39222;SDS011;24936;46.328;11.026;2023-07-16T09:07:48;3.53;;;2.75;;
39222;SDS011;24936;46.328;11.026;2023-07-16T09:10:14;3.20;;;2.20;;
39222;SDS011;24936;46.328;11.026;2023-07-16T09:12:44;5.47;;;2.38;;
39222;SDS011;24936;46.328;11.026;2023-07-16T09:15:11;5.20;;;2.50;;
39222;SDS011;24936;46.328;11.026;2023-07-16T09:17:46;4.70;;;2.22;;
39222;SDS011;24936;46.328;11.026;2023-07-16T09:20:14;3.17;;;1.95;;
39222;SDS011;24936;46.328;11.026;2023-07-16T09:22:40;6.68;;;2.13;;
39222;SDS011;24936;46.328;11.026;2023-07-16T09:25:06;5.40;;;2.50;;
39222;SDS011;24936;46.328;11.026;2023-07-16T09:27:31;6.13;;;2.00;;
39222;SDS011;24936;46.328;11.026;2023-07-16T09:29:57;2.53;;;1.83;;
39222;SDS011;24936;46.328;11.026;2023-07-16T09:32:33;3.20;;;2.05;;
39222;SDS011;24936;46.328;11.026;2023-07-16T09:35:14;3.53;;;1.88;;
39222;SDS011;24936;46.328;11.026;2023-07-16T09:37:40;5.15;;;1.90;;
39222;SDS011;24936;46.328;11.026;2023-07-16T09:40:07;3.72;;;2.08;;
39222;SDS011;24936;46.328;11.026;2023-07-16T09:42:38;3.17;;;2.00;;
39222;SDS011;24936;46.328;11.026;2023-07-16T09:45:28;5.70;;;2.20;;
39222;SDS011;24936;46.328;11.026;2023-07-16T09:47:53;3.15;;;1.67;;
39222;SDS011;24936;46.328;11.026;2023-07-16T09:50:18;4.43;;;1.80;;
39222;SDS011;24936;46.328;11.026;2023-07-16T09:52:45;3.42;;;1.80;;
39222;SDS011;24936;46.328;11.026;2023-07-16T09:55:12;3.03;;;1.70;;
39222;SDS011;24936;46.328;11.026;2023-07-16T09:57:41;3.45;;;1.67;;
39222;SDS011;24936;46.328;11.026;2023-07-16T10:00:11;2.47;;;1.80;;
39222;SDS011;24936;46.328;11.026;2023-07-16T10:02:39;3.28;;;1.73;;
39222;SDS011;24936;46.328;11.026;2023-07-16T10:05:14;2.95;;;1.77;;
39222;SDS011;24936;46.328;11.026;2023-07-16T10:07:41;6.90;;;2.22;;
39222;SDS011;24936;46.328;11.026;2023-07-16T10:10:08;4.88;;;1.67;;
39222;SDS011;24936;46.328;11.026;2023-07-16T10:12:34;5.85;;;1.92;;
39222;SDS011;24936;46.328;11.026;2023-07-16T10:15:00;2.95;;;2.10;;
39222;SDS011;24936;46.328;11.026;2023-07-16T10:17:29;3.20;;;1.73;;
39222;SDS011;24936;46.328;11.026;2023-07-16T10:22:32;3.25;;;2.10;;
39222;SDS011;24936;46.328;11.026;2023-07-16T10:25:03;4.25;;;2.08;;
39222;SDS011;24936;46.328;11.026;2023-07-16T10:27:35;3.28;;;1.95;;
39222;SDS011;24936;46.328;11.026;2023-07-16T10:30:02;3.55;;;1.70;;
39222;SDS011;24936;46.328;11.026;2023-07-16T10:32:30;2.65;;;1.85;;
39222;SDS011;24936;46.328;11.026;2023-07-16T10:34:57;2.20;;;1.67;;
39222;SDS011;24936;46.328;11.026;2023-07-16T10:37:23;2.75;;;1.75;;
39222;SDS011;24936;46.328;11.026;2023-07-16T10:39:49;2.97;;;1.70;;
39222;SDS011;24936;46.328;11.026;2023-07-16T10:42:16;2.60;;;1.83;;
39222;SDS011;24936;46.328;11.026;2023-07-16T10:44:43;2.40;;;1.50;;
39222;SDS011;24936;46.328;11.026;2023-07-16T10:47:09;2.15;;;1.50;;
39222;SDS011;24936;46.328;11.026;2023-07-16T10:49:44;2.00;;;1.65;;
39222;SDS011;24936;46.328;11.026;2023-07-16T10:52:09;2.58;;;1.65;;
39222;SDS011;24936;46.328;11.026;2023-07-16T10:54:35;5.20;;;1.50;;
39222;SDS011;24936;46.328;11.026;2023-07-16T10:57:00;4.03;;;1.80;;
39222;SDS011;24936;46.328;11.026;2023-07-16T10:59:26;4.88;;;1.67;;
39222;SDS011;24936;46.328;11.026;2023-07-16T11:01:51;4.82;;;1.92;;
39222;SDS011;24936;46.328;11.026;2023-07-16T11:04:16;3.33;;;1.83;;
39222;SDS011;24936;46.328;11.026;2023-07-16T11:06:42;5.10;;;2.15;;
39222;SDS011;24936;46.328;11.026;2023-07-16T11:09:08;2.38;;;1.80;;
39222;SDS011;24936;46.328;11.026;2023-07-16T11:11:34;2.67;;;1.63;;
39222;SDS011;24936;46.328;11.026;2023-07-16T11:14:03;3.15;;;1.65;;
39222;SDS011;24936;46.328;11.026;2023-07-16T11:16:35;2.72;;;1.70;;
39222;SDS011;24936;46.328;11.026;2023-07-16T11:19:05;4.97;;;2.00;;
39222;SDS011;24936;46.328;11.026;2023-07-16T11:21:34;3.47;;;1.90;;
39222;SDS011;24936;46.328;11.026;2023-07-16T11:24:14;3.90;;;1.80;;
39222;SDS011;24936;46.328;11.026;2023-07-16T11:26:49;2.25;;;1.83;;
39222;SDS011;24936;46.328;11.026;2023-07-16T11:29:16;2.95;;;1.67;;
39222;SDS011;24936;46.328;11.026;2023-07-16T11:31:41;4.22;;;1.70;;
39222;SDS011;24936;46.328;11.026;2023-07-16T11:34:07;2.75;;;1.52;;
39222;SDS011;24936;46.328;11.026;2023-07-16T11:36:33;2.35;;;1.67;;
39222;SDS011;24936;46.328;11.026;2023-07-16T11:38:59;3.03;;;1.58;;
39222;SDS011;24936;46.328;11.026;2023-07-16T11:41:24;6.30;;;1.90;;
39222;SDS011;24936;46.328;11.026;2023-07-16T11:43:50;2.30;;;1.50;;
39222;SDS011;24936;46.328;11.026;2023-07-16T11:46:16;2.63;;;1.60;;
39222;SDS011;24936;46.328;11.026;2023-07-16T11:48:42;2.60;;;1.73;;
39222;SDS011;24936;46.328;11.026;2023-07-16T11:51:08;5.05;;;1.90;;
39222;SDS011;24936;46.328;11.026;2023-07-16T11:53:33;3.60;;;1.55;;
39222;SDS011;24936;46.328;11.026;2023-07-16T11:55:59;2.95;;;1.70;;
39222;SDS011;24936;46.328;11.026;2023-07-16T11:58:24;2.78;;;1.55;;
39222;SDS011;24936;46.328;11.026;2023-07-16T12:00:50;2.45;;;1.63;;
39222;SDS011;24936;46.328;11.026;2023-07-16T12:03:16;3.00;;;1.50;;
39222;SDS011;24936;46.328;11.026;2023-07-16T12:05:42;3.85;;;1.52;;
39222;SDS011;24936;46.328;11.026;2023-07-16T12:08:07;1.83;;;1.30;;
39222;SDS011;24936;46.328;11.026;2023-07-16T12:10:39;4.55;;;1.50;;
39222;SDS011;24936;46.328;11.026;2023-07-16T12:13:08;3.50;;;1.40;;
39222;SDS011;24936;46.328;11.026;2023-07-16T12:15:33;2.92;;;1.20;;
39222;SDS011;24936;46.328;11.026;2023-07-16T12:17:59;2.85;;;1.17;;
39222;SDS011;24936;46.328;11.026;2023-07-16T12:20:24;1.50;;;1.10;;
39222;SDS011;24936;46.328;11.026;2023-07-16T12:22:50;2.58;;;1.23;;
39222;SDS011;24936;46.328;11.026;2023-07-16T12:25:16;2.30;;;1.17;;
39222;SDS011;24936;46.328;11.026;2023-07-16T12:27:41;2.50;;;1.15;;
39222;SDS011;24936;46.328;11.026;2023-07-16T12:30:07;2.03;;;1.33;;
39222;SDS011;24936;46.328;11.026;2023-07-16T12:32:33;2.13;;;1.35;;
39222;SDS011;24936;46.328;11.026;2023-07-16T12:34:58;2.08;;;1.08;;
39222;SDS011;24936;46.328;11.026;2023-07-16T12:37:25;2.10;;;1.40;;
39222;SDS011;24936;46.328;11.026;2023-07-16T12:39:51;1.40;;;1.30;;
39222;SDS011;24936;46.328;11.026;2023-07-16T12:42:16;2.55;;;1.20;;
39222;SDS011;24936;46.328;11.026;2023-07-16T12:44:42;2.35;;;1.20;;
39222;SDS011;24936;46.328;11.026;2023-07-16T12:47:07;2.35;;;1.10;;
39222;SDS011;24936;46.328;11.026;2023-07-16T12:49:36;1.75;;;1.20;;
39222;SDS011;24936;46.328;11.026;2023-07-16T12:52:02;1.85;;;1.00;;
39222;SDS011;24936;46.328;11.026;2023-07-16T12:54:27;1.70;;;1.10;;
39222;SDS011;24936;46.328;11.026;2023-07-16T12:56:53;4.75;;;1.10;;
39222;SDS011;24936;46.328;11.026;2023-07-16T12:59:19;2.22;;;1.20;;
39222;SDS011;24936;46.328;11.026;2023-07-16T13:01:45;1.90;;;1.30;;
39222;SDS011;24936;46.328;11.026;2023-07-16T13:04:10;1.92;;;0.88;;
39222;SDS011;24936;46.328;11.026;2023-07-16T13:06:35;4.15;;;1.08;;
39222;SDS011;24936;46.328;11.026;2023-07-16T13:09:01;2.45;;;1.20;;
39222;SDS011;24936;46.328;11.026;2023-07-16T13:11:26;1.30;;;1.00;;
39222;SDS011;24936;46.328;11.026;2023-07-16T13:13:52;1.35;;;1.00;;
39222;SDS011;24936;46.328;11.026;2023-07-16T13:16:18;2.92;;;1.15;;
39222;SDS011;24936;46.328;11.026;2023-07-16T13:18:43;2.55;;;1.15;;
39222;SDS011;24936;46.328;11.026;2023-07-16T13:21:09;1.88;;;1.10;;
39222;SDS011;24936;46.328;11.026;2023-07-16T13:23:34;1.80;;;1.10;;
39222;SDS011;24936;46.328;11.026;2023-07-16T13:26:00;1.38;;;0.93;;
39222;SDS011;24936;46.328;11.026;2023-07-16T13:28:26;2.33;;;1.10;;
39222;SDS011;24936;46.328;11.026;2023-07-16T13:30:53;1.88;;;0.95;;
39222;SDS011;24936;46.328;11.026;2023-07-16T13:33:19;2.05;;;0.95;;
39222;SDS011;24936;46.328;11.026;2023-07-16T13:35:44;1.67;;;1.00;;
39222;SDS011;24936;46.328;11.026;2023-07-16T13:38:10;1.45;;;0.93;;
39222;SDS011;24936;46.328;11.026;2023-07-16T13:40:35;2.63;;;1.20;;
39222;SDS011;24936;46.328;11.026;2023-07-16T13:43:01;2.70;;;1.15;;
39222;SDS011;24936;46.328;11.026;2023-07-16T13:45:26;3.25;;;0.90;;
39222;SDS011;24936;46.328;11.026;2023-07-16T13:47:52;3.15;;;1.30;;
39222;SDS011;24936;46.328;11.026;2023-07-16T13:50:18;4.85;;;1.20;;
39222;SDS011;24936;46.328;11.026;2023-07-16T13:52:44;2.20;;;1.10;;
39222;SDS011;24936;46.328;11.026;2023-07-16T13:55:10;2.20;;;0.98;;
39222;SDS011;24936;46.328;11.026;2023-07-16T13:57:35;4.50;;;1.08;;
39222;SDS011;24936;46.328;11.026;2023-07-16T14:00:01;4.25;;;1.00;;
39222;SDS011;24936;46.328;11.026;2023-07-16T14:02:29;5.20;;;1.00;;
39222;SDS011;24936;46.328;11.026;2023-07-16T14:04:55;5.18;;;1.10;;
39222;SDS011;24936;46.328;11.026;2023-07-16T14:07:20;3.15;;;1.00;;
39222;SDS011;24936;46.328;11.026;2023-07-16T14:09:46;1.95;;;1.00;;
39222;SDS011;24936;46.328;11.026;2023-07-16T14:12:11;1.27;;;0.90;;
39222;SDS011;24936;46.328;11.026;2023-07-16T14:14:37;3.53;;;1.10;;
39222;SDS011;24936;46.328;11.026;2023-07-16T14:17:03;2.15;;;1.05;;
39222;SDS011;24936;46.328;11.026;2023-07-16T14:19:28;3.05;;;1.00;;
39222;SDS011;24936;46.328;11.026;2023-07-16T14:21:55;4.13;;;1.20;;
39222;SDS011;24936;46.328;11.026;2023-07-16T14:24:21;1.85;;;1.10;;
39222;SDS011;24936;46.328;11.026;2023-07-16T14:26:46;2.63;;;1.00;;
39222;SDS011;24936;46.328;11.026;2023-07-16T14:29:11;3.05;;;0.98;;
39222;SDS011;24936;46.328;11.026;2023-07-16T14:31:37;3.70;;;1.10;;
39222;SDS011;24936;46.328;11.026;2023-07-16T14:34:03;1.08;;;0.85;;
39222;SDS011;24936;46.328;11.026;2023-07-16T14:36:28;1.40;;;1.00;;
39222;SDS011;24936;46.328;11.026;2023-07-16T14:38:54;1.65;;;1.10;;
39222;SDS011;24936;46.328;11.026;2023-07-16T14:41:20;2.25;;;1.10;;
39222;SDS011;24936;46.328;11.026;2023-07-16T14:43:45;4.78;;;1.00;;
39222;SDS011;24936;46.328;11.026;2023-07-16T14:46:13;2.15;;;0.93;;
39222;SDS011;24936;46.328;11.026;2023-07-16T14:48:41;1.23;;;1.00;;
39222;SDS011;24936;46.328;11.026;2023-07-16T14:51:07;3.60;;;1.08;;
39222;SDS011;24936;46.328;11.026;2023-07-16T14:53:33;1.60;;;1.00;;
39222;SDS011;24936;46.328;11.026;2023-07-16T14:55:58;2.35;;;1.00;;
39222;SDS011;24936;46.328;11.026;2023-07-16T14:58:24;2.13;;;1.10;;
39222;SDS011;24936;46.328;11.026;2023-07-16T15:00:50;1.92;;;1.05;;
39222;SDS011;24936;46.328;11.026;2023-07-16T15:03:16;2.15;;;1.10;;
39222;SDS011;24936;46.328;11.026;2023-07-16T15:05:41;2.40;;;1.08;;
39222;SDS011;24936;46.328;11.026;2023-07-16T15:08:07;2.10;;;1.27;;
39222;SDS011;24936;46.328;11.026;2023-07-16T15:10:32;2.10;;;1.20;;
39222;SDS011;24936;46.328;11.026;2023-07-16T15:12:58;2.08;;;0.98;;
39222;SDS011;24936;46.328;11.026;2023-07-16T15:15:24;4.55;;;1.02;;
39222;SDS011;24936;46.328;11.026;2023-07-16T15:17:49;3.30;;;1.00;;
39222;SDS011;24936;46.328;11.026;2023-07-16T15:20:14;1.88;;;1.00;;
39222;SDS011;24936;46.328;11.026;2023-07-16T15:22:40;1.98;;;1.02;;
39222;SDS011;24936;46.328;11.026;2023-07-16T15:25:06;6.20;;;1.20;;
39222;SDS011;24936;46.328;11.026;2023-07-16T15:27:32;4.35;;;1.00;;
39222;SDS011;24936;46.328;11.026;2023-07-16T15:29:57;2.13;;;1.10;;
39222;SDS011;24936;46.328;11.026;2023-07-16T15:32:23;1.63;;;1.00;;
39222;SDS011;24936;46.328;11.026;2023-07-16T15:34:49;1.80;;;1.05;;
39222;SDS011;24936;46.328;11.026;2023-07-16T15:37:14;4.35;;;1.25;;
39222;SDS011;24936;46.328;11.026;2023-07-16T15:39:40;3.50;;;1.05;;
39222;SDS011;24936;46.328;11.026;2023-07-16T15:42:05;1.40;;;1.05;;
39222;SDS011;24936;46.328;11.026;2023-07-16T15:44:31;1.60;;;1.10;;
39222;SDS011;24936;46.328;11.026;2023-07-16T15:46:57;2.72;;;1.05;;
39222;SDS011;24936;46.328;11.026;2023-07-16T15:49:22;4.50;;;1.00;;
39222;SDS011;24936;46.328;11.026;2023-07-16T15:51:48;4.65;;;0.95;;
39222;SDS011;24936;46.328;11.026;2023-07-16T15:54:13;3.95;;;1.27;;
39222;SDS011;24936;46.328;11.026;2023-07-16T15:56:39;2.83;;;1.13;;
39222;SDS011;24936;46.328;11.026;2023-07-16T15:59:04;1.85;;;1.10;;
39222;SDS011;24936;46.328;11.026;2023-07-16T16:01:30;1.13;;;0.90;;
39222;SDS011;24936;46.328;11.026;2023-07-16T16:03:55;2.13;;;1.15;;
39222;SDS011;24936;46.328;11.026;2023-07-16T16:06:21;5.13;;;1.10;;
39222;SDS011;24936;46.328;11.026;2023-07-16T16:08:46;1.85;;;1.00;;
39222;SDS011;24936;46.328;11.026;2023-07-16T16:11:12;5.72;;;1.10;;
39222;SDS011;24936;46.328;11.026;2023-07-16T16:13:37;3.15;;;1.10;;
39222;SDS011;24936;46.328;11.026;2023-07-16T16:16:02;3.60;;;1.00;;
39222;SDS011;24936;46.328;11.026;2023-07-16T16:18:28;3.83;;;0.95;;
39222;SDS011;24936;46.328;11.026;2023-07-16T16:20:54;2.53;;;1.00;;
39222;SDS011;24936;46.328;11.026;2023-07-16T16:23:20;2.65;;;1.10;;
39222;SDS011;24936;46.328;11.026;2023-07-16T16:25:46;3.67;;;1.02;;
39222;SDS011;24936;46.328;11.026;2023-07-16T16:28:12;2.70;;;1.00;;
39222;SDS011;24936;46.328;11.026;2023-07-16T16:30:39;2.63;;;0.93;;
39222;SDS011;24936;46.328;11.026;2023-07-16T16:33:05;2.72;;;1.08;;
39222;SDS011;24936;46.328;11.026;2023-07-16T16:35:32;4.10;;;0.90;;
39222;SDS011;24936;46.328;11.026;2023-07-16T16:37:59;2.13;;;0.90;;
39222;SDS011;24936;46.328;11.026;2023-07-16T16:40:24;3.45;;;1.00;;